sensor_id;sensor_type;location;lat;lon;timestamp;temperature;humidity
77056;SHT30;67471;44.918;8.614;2023-04-06T00:02:37;8.97;47.89
77056;SHT30;67471;44.918;8.614;2023-04-06T00:05:41;8.88;48.16
77056;SHT30;67471;44.918;8.614;2023-04-06T00:08:45;8.79;48.78
77056;SHT30;67471;44.918;8.614;2023-04-06T00:11:49;8.88;49.80
77056;SHT30;67471;44.918;8.614;2023-04-06T00:14:53;8.83;50.37
77056;SHT30;67471;44.918;8.614;2023-04-06T00:17:56;8.79;50.70
77056;SHT30;67471;44.918;8.614;2023-04-06T00:21:00;8.69;50.72
77056;SHT30;67471;44.918;8.614;2023-04-06T00:24:04;8.54;51.07
77056;SHT30;67471;44.918;8.614;2023-04-06T00:27:08;8.49;50.79
77056;SHT30;67471;44.918;8.614;2023-04-06T00:30:11;8.35;50.46
77056;SHT30;67471;44.918;8.614;2023-04-06T00:33:15;8.41;50.74
77056;SHT30;67471;44.918;8.614;2023-04-06T00:36:19;8.46;51.47
77056;SHT30;67471;44.918;8.614;2023-04-06T00:39:23;8.41;52.09
77056;SHT30;67471;44.918;8.614;2023-04-06T00:42:26;8.50;51.87
77056;SHT30;67471;44.918;8.614;2023-04-06T00:45:30;8.38;52.76
77056;SHT30;67471;44.918;8.614;2023-04-06T00:48:34;8.42;53.17
77056;SHT30;67471;44.918;8.614;2023-04-06T00:51:38;8.42;53.23
77056;SHT30;67471;44.918;8.614;2023-04-06T00:54:42;8.50;52.95
77056;SHT30;67471;44.918;8.614;2023-04-06T00:57:47;8.52;52.98
77056;SHT30;67471;44.918;8.614;2023-04-06T01:00:53;8.46;52.93
77056;SHT30;67471;44.918;8.614;2023-04-06T01:03:59;8.38;53.95
77056;SHT30;67471;44.918;8.614;2023-04-06T01:07:04;8.45;54.20
77056;SHT30;67471;44.918;8.614;2023-04-06T01:10:26;8.35;53.63
77056;SHT30;67471;44.918;8.614;2023-04-06T01:13:38;8.25;53.93
77056;SHT30;67471;44.918;8.614;2023-04-06T01:16:45;8.26;53.54
77056;SHT30;67471;44.918;8.614;2023-04-06T01:19:54;8.25;52.53
77056;SHT30;67471;44.918;8.614;2023-04-06T01:23:04;8.15;50.89
77056;SHT30;67471;44.918;8.614;2023-04-06T01:26:08;8.13;50.40
77056;SHT30;67471;44.918;8.614;2023-04-06T01:29:12;8.21;50.37
77056;SHT30;67471;44.918;8.614;2023-04-06T01:32:16;8.18;50.02
77056;SHT30;67471;44.918;8.614;2023-04-06T01:35:27;8.19;51.63
77056;SHT30;67471;44.918;8.614;2023-04-06T01:38:40;8.16;51.72
77056;SHT30;67471;44.918;8.614;2023-04-06T01:41:45;8.16;53.23
77056;SHT30;67471;44.918;8.614;2023-04-06T01:44:51;8.08;53.56
77056;SHT30;67471;44.918;8.614;2023-04-06T01:47:55;8.03;52.30
77056;SHT30;67471;44.918;8.614;2023-04-06T01:51:02;7.92;52.96
77056;SHT30;67471;44.918;8.614;2023-04-06T01:54:09;8.01;52.02
77056;SHT30;67471;44.918;8.614;2023-04-06T01:57:33;7.91;51.47
77056;SHT30;67471;44.918;8.614;2023-04-06T02:01:06;7.97;51.60
77056;SHT30;67471;44.918;8.614;2023-04-06T02:04:22;7.94;52.04
77056;SHT30;67471;44.918;8.614;2023-04-06T02:07:30;7.74;52.19
77056;SHT30;67471;44.918;8.614;2023-04-06T02:10:34;7.71;52.12
77056;SHT30;67471;44.918;8.614;2023-04-06T02:13:45;7.71;51.62
77056;SHT30;67471;44.918;8.614;2023-04-06T02:16:49;7.33;51.60
77056;SHT30;67471;44.918;8.614;2023-04-06T02:19:53;7.09;54.96
77056;SHT30;67471;44.918;8.614;2023-04-06T02:22:58;6.79;56.07
77056;SHT30;67471;44.918;8.614;2023-04-06T02:26:03;6.98;55.74
77056;SHT30;67471;44.918;8.614;2023-04-06T02:29:07;7.03;55.57
77056;SHT30;67471;44.918;8.614;2023-04-06T02:32:10;6.72;56.54
77056;SHT30;67471;44.918;8.614;2023-04-06T02:35:14;6.77;56.60
77056;SHT30;67471;44.918;8.614;2023-04-06T02:38:18;7.01;56.05
77056;SHT30;67471;44.918;8.614;2023-04-06T02:41:22;7.13;55.50
77056;SHT30;67471;44.918;8.614;2023-04-06T02:44:26;7.09;56.98
77056;SHT30;67471;44.918;8.614;2023-04-06T02:47:29;7.18;57.96
77056;SHT30;67471;44.918;8.614;2023-04-06T02:50:33;7.10;58.63
77056;SHT30;67471;44.918;8.614;2023-04-06T02:53:40;6.92;59.08
77056;SHT30;67471;44.918;8.614;2023-04-06T02:56:44;6.91;59.25
77056;SHT30;67471;44.918;8.614;2023-04-06T02:59:49;6.96;59.51
77056;SHT30;67471;44.918;8.614;2023-04-06T03:02:58;6.96;59.43
77056;SHT30;67471;44.918;8.614;2023-04-06T03:06:03;6.77;59.51
77056;SHT30;67471;44.918;8.614;2023-04-06T03:09:08;6.64;59.90
77056;SHT30;67471;44.918;8.614;2023-04-06T03:12:12;6.64;60.11
77056;SHT30;67471;44.918;8.614;2023-04-06T03:15:35;6.48;60.35
77056;SHT30;67471;44.918;8.614;2023-04-06T03:18:49;6.38;60.97
77056;SHT30;67471;44.918;8.614;2023-04-06T03:21:52;6.27;61.40
77056;SHT30;67471;44.918;8.614;2023-04-06T03:24:57;6.21;61.41
77056;SHT30;67471;44.918;8.614;2023-04-06T03:28:01;6.11;61.96
77056;SHT30;67471;44.918;8.614;2023-04-06T03:31:05;6.21;60.84
77056;SHT30;67471;44.918;8.614;2023-04-06T03:34:35;6.10;61.25
77056;SHT30;67471;44.918;8.614;2023-04-06T03:37:39;5.90;61.93
77056;SHT30;67471;44.918;8.614;2023-04-06T03:40:43;6.16;61.26
77056;SHT30;67471;44.918;8.614;2023-04-06T03:43:46;6.17;62.63
77056;SHT30;67471;44.918;8.614;2023-04-06T03:46:50;6.20;62.64
77056;SHT30;67471;44.918;8.614;2023-04-06T03:49:55;6.33;61.16
77056;SHT30;67471;44.918;8.614;2023-04-06T03:52:59;6.30;60.70
77056;SHT30;67471;44.918;8.614;2023-04-06T03:56:05;6.05;61.25
77056;SHT30;67471;44.918;8.614;2023-04-06T03:59:09;5.99;61.03
77056;SHT30;67471;44.918;8.614;2023-04-06T04:02:12;5.86;61.21
77056;SHT30;67471;44.918;8.614;2023-04-06T04:05:16;5.88;61.73
77056;SHT30;67471;44.918;8.614;2023-04-06T04:08:20;5.73;61.95
77056;SHT30;67471;44.918;8.614;2023-04-06T04:11:24;5.75;61.95
77056;SHT30;67471;44.918;8.614;2023-04-06T04:14:33;5.58;62.66
77056;SHT30;67471;44.918;8.614;2023-04-06T04:17:38;5.62;62.53
77056;SHT30;67471;44.918;8.614;2023-04-06T04:20:42;5.63;62.98
77056;SHT30;67471;44.918;8.614;2023-04-06T04:23:47;5.58;63.23
77056;SHT30;67471;44.918;8.614;2023-04-06T04:26:51;5.55;64.07
77056;SHT30;67471;44.918;8.614;2023-04-06T04:29:56;5.52;63.77
77056;SHT30;67471;44.918;8.614;2023-04-06T04:33:00;5.45;63.45
77056;SHT30;67471;44.918;8.614;2023-04-06T04:36:05;5.55;62.62
77056;SHT30;67471;44.918;8.614;2023-04-06T04:39:15;5.54;62.97
77056;SHT30;67471;44.918;8.614;2023-04-06T04:42:23;5.44;63.28
77056;SHT30;67471;44.918;8.614;2023-04-06T04:45:30;5.37;62.97
77056;SHT30;67471;44.918;8.614;2023-04-06T04:48:36;5.38;63.07
77056;SHT30;67471;44.918;8.614;2023-04-06T04:51:42;5.31;63.41
77056;SHT30;67471;44.918;8.614;2023-04-06T04:54:49;5.34;63.49
77056;SHT30;67471;44.918;8.614;2023-04-06T04:58:00;5.35;63.63
77056;SHT30;67471;44.918;8.614;2023-04-06T05:01:19;5.27;63.84
77056;SHT30;67471;44.918;8.614;2023-04-06T05:04:24;5.17;64.29
77056;SHT30;67471;44.918;8.614;2023-04-06T05:07:31;5.07;64.15
77056;SHT30;67471;44.918;8.614;2023-04-06T05:10:37;5.09;64.42
77056;SHT30;67471;44.918;8.614;2023-04-06T05:13:42;4.97;64.97
77056;SHT30;67471;44.918;8.614;2023-04-06T05:16:52;5.00;65.13
77056;SHT30;67471;44.918;8.614;2023-04-06T05:19:57;4.99;64.85
77056;SHT30;67471;44.918;8.614;2023-04-06T05:23:02;5.06;64.85
77056;SHT30;67471;44.918;8.614;2023-04-06T05:26:07;5.03;64.72
77056;SHT30;67471;44.918;8.614;2023-04-06T05:29:11;5.21;64.43
77056;SHT30;67471;44.918;8.614;2023-04-06T05:32:15;5.17;63.96
77056;SHT30;67471;44.918;8.614;2023-04-06T05:35:20;5.27;62.71
77056;SHT30;67471;44.918;8.614;2023-04-06T05:38:28;5.34;62.61
77056;SHT30;67471;44.918;8.614;2023-04-06T05:41:35;5.34;63.40
77056;SHT30;67471;44.918;8.614;2023-04-06T05:44:39;5.44;62.84
77056;SHT30;67471;44.918;8.614;2023-04-06T05:47:48;5.34;62.01
77056;SHT30;67471;44.918;8.614;2023-04-06T05:51:02;5.54;61.89
77056;SHT30;67471;44.918;8.614;2023-04-06T05:54:16;5.63;62.35
77056;SHT30;67471;44.918;8.614;2023-04-06T05:57:20;5.72;62.54
77056;SHT30;67471;44.918;8.614;2023-04-06T06:00:26;5.78;62.52
77056;SHT30;67471;44.918;8.614;2023-04-06T06:03:39;5.96;62.18
77056;SHT30;67471;44.918;8.614;2023-04-06T06:06:43;6.10;60.31
77056;SHT30;67471;44.918;8.614;2023-04-06T06:09:57;6.34;59.74
77056;SHT30;67471;44.918;8.614;2023-04-06T06:13:06;8.01;55.06
77056;SHT30;67471;44.918;8.614;2023-04-06T06:16:10;9.87;50.25
77056;SHT30;67471;44.918;8.614;2023-04-06T06:19:20;11.74;44.17
77056;SHT30;67471;44.918;8.614;2023-04-06T06:22:24;11.91;43.03
77056;SHT30;67471;44.918;8.614;2023-04-06T06:25:28;11.54;43.92
77056;SHT30;67471;44.918;8.614;2023-04-06T06:28:34;12.02;43.76
77056;SHT30;67471;44.918;8.614;2023-04-06T06:31:38;13.21;40.17
77056;SHT30;67471;44.918;8.614;2023-04-06T06:34:42;13.63;39.50
77056;SHT30;67471;44.918;8.614;2023-04-06T06:37:47;14.65;37.79
77056;SHT30;67471;44.918;8.614;2023-04-06T06:40:54;15.40;37.29
77056;SHT30;67471;44.918;8.614;2023-04-06T06:44:01;15.56;36.57
77056;SHT30;67471;44.918;8.614;2023-04-06T06:47:05;15.39;36.76
77056;SHT30;67471;44.918;8.614;2023-04-06T06:50:10;15.25;36.16
77056;SHT30;67471;44.918;8.614;2023-04-06T06:53:13;16.86;33.81
77056;SHT30;67471;44.918;8.614;2023-04-06T06:56:18;17.42;32.50
77056;SHT30;67471;44.918;8.614;2023-04-06T06:59:21;17.38;32.77
77056;SHT30;67471;44.918;8.614;2023-04-06T07:02:26;18.23;31.78
77056;SHT30;67471;44.918;8.614;2023-04-06T07:05:30;18.13;31.07
77056;SHT30;67471;44.918;8.614;2023-04-06T07:08:35;17.96;31.68
77056;SHT30;67471;44.918;8.614;2023-04-06T07:11:40;17.59;31.57
77056;SHT30;67471;44.918;8.614;2023-04-06T07:14:43;18.39;30.73
77056;SHT30;67471;44.918;8.614;2023-04-06T07:17:47;18.40;29.64
77056;SHT30;67471;44.918;8.614;2023-04-06T07:20:51;18.72;29.74
77056;SHT30;67471;44.918;8.614;2023-04-06T07:23:55;18.77;28.83
77056;SHT30;67471;44.918;8.614;2023-04-06T07:26:59;18.84;28.87
77056;SHT30;67471;44.918;8.614;2023-04-06T07:30:06;19.29;28.22
77056;SHT30;67471;44.918;8.614;2023-04-06T07:33:10;18.44;29.58
77056;SHT30;67471;44.918;8.614;2023-04-06T07:36:15;18.29;29.24
77056;SHT30;67471;44.918;8.614;2023-04-06T07:39:19;18.78;28.79
77056;SHT30;67471;44.918;8.614;2023-04-06T07:42:24;18.70;28.67
77056;SHT30;67471;44.918;8.614;2023-04-06T07:45:28;18.10;29.44
77056;SHT30;67471;44.918;8.614;2023-04-06T07:48:32;17.48;30.27
77056;SHT30;67471;44.918;8.614;2023-04-06T07:51:37;17.45;30.04
77056;SHT30;67471;44.918;8.614;2023-04-06T07:54:42;17.57;30.44
77056;SHT30;67471;44.918;8.614;2023-04-06T07:57:45;17.40;31.02
77056;SHT30;67471;44.918;8.614;2023-04-06T08:00:49;16.72;31.81
77056;SHT30;67471;44.918;8.614;2023-04-06T08:03:53;16.75;31.49
77056;SHT30;67471;44.918;8.614;2023-04-06T08:06:58;16.86;30.96
77056;SHT30;67471;44.918;8.614;2023-04-06T08:10:03;16.87;31.75
77056;SHT30;67471;44.918;8.614;2023-04-06T08:13:06;16.87;31.66
77056;SHT30;67471;44.918;8.614;2023-04-06T08:16:11;17.11;31.43
77056;SHT30;67471;44.918;8.614;2023-04-06T08:19:15;17.11;31.51
77056;SHT30;67471;44.918;8.614;2023-04-06T08:22:20;16.93;30.96
77056;SHT30;67471;44.918;8.614;2023-04-06T08:25:24;16.24;30.99
77056;SHT30;67471;44.918;8.614;2023-04-06T08:28:28;16.39;31.02
77056;SHT30;67471;44.918;8.614;2023-04-06T08:31:31;16.26;31.54
77056;SHT30;67471;44.918;8.614;2023-04-06T08:34:35;16.01;32.55
77056;SHT30;67471;44.918;8.614;2023-04-06T08:37:39;16.49;32.01
77056;SHT30;67471;44.918;8.614;2023-04-06T08:40:42;16.93;30.85
77056;SHT30;67471;44.918;8.614;2023-04-06T08:43:49;16.96;30.95
77056;SHT30;67471;44.918;8.614;2023-04-06T08:46:54;16.86;31.06
77056;SHT30;67471;44.918;8.614;2023-04-06T08:50:03;16.89;31.55
77056;SHT30;67471;44.918;8.614;2023-04-06T08:53:07;16.35;32.85
77056;SHT30;67471;44.918;8.614;2023-04-06T08:56:12;16.63;32.45
77056;SHT30;67471;44.918;8.614;2023-04-06T08:59:16;16.65;32.73
77056;SHT30;67471;44.918;8.614;2023-04-06T09:02:20;16.36;33.50
77056;SHT30;67471;44.918;8.614;2023-04-06T09:05:25;16.69;32.97
77056;SHT30;67471;44.918;8.614;2023-04-06T09:08:28;17.07;32.37
77056;SHT30;67471;44.918;8.614;2023-04-06T09:12:02;17.30;32.02
77056;SHT30;67471;44.918;8.614;2023-04-06T09:15:18;17.14;32.55
77056;SHT30;67471;44.918;8.614;2023-04-06T09:18:29;17.20;32.26
77056;SHT30;67471;44.918;8.614;2023-04-06T09:21:33;17.14;32.55
77056;SHT30;67471;44.918;8.614;2023-04-06T09:24:45;17.20;32.27
77056;SHT30;67471;44.918;8.614;2023-04-06T09:27:59;17.03;33.19
77056;SHT30;67471;44.918;8.614;2023-04-06T09:31:03;17.30;32.09
77056;SHT30;67471;44.918;8.614;2023-04-06T09:34:07;17.17;32.42
77056;SHT30;67471;44.918;8.614;2023-04-06T09:37:18;17.13;32.50
77056;SHT30;67471;44.918;8.614;2023-04-06T09:40:22;17.31;32.32
77056;SHT30;67471;44.918;8.614;2023-04-06T09:43:26;17.32;32.89
77056;SHT30;67471;44.918;8.614;2023-04-06T09:46:35;17.06;32.99
77056;SHT30;67471;44.918;8.614;2023-04-06T09:49:39;17.00;33.66
77056;SHT30;67471;44.918;8.614;2023-04-06T09:52:48;17.82;32.58
77056;SHT30;67471;44.918;8.614;2023-04-06T09:55:57;18.14;32.49
77056;SHT30;67471;44.918;8.614;2023-04-06T09:59:09;18.30;32.20
77056;SHT30;67471;44.918;8.614;2023-04-06T10:08:47;18.22;31.26
77056;SHT30;67471;44.918;8.614;2023-04-06T10:11:54;18.33;31.07
77056;SHT30;67471;44.918;8.614;2023-04-06T10:14:58;18.25;31.28
77056;SHT30;67471;44.918;8.614;2023-04-06T10:18:03;18.50;30.73
77056;SHT30;67471;44.918;8.614;2023-04-06T10:21:10;18.64;30.52
77056;SHT30;67471;44.918;8.614;2023-04-06T10:24:14;18.74;30.31
77056;SHT30;67471;44.918;8.614;2023-04-06T10:27:27;18.50;30.39
77056;SHT30;67471;44.918;8.614;2023-04-06T10:30:33;18.70;29.36
77056;SHT30;67471;44.918;8.614;2023-04-06T10:33:37;18.77;29.76
77056;SHT30;67471;44.918;8.614;2023-04-06T10:36:41;18.91;28.82
77056;SHT30;67471;44.918;8.614;2023-04-06T10:39:52;19.08;29.02
77056;SHT30;67471;44.918;8.614;2023-04-06T10:46:12;19.29;28.87
77056;SHT30;67471;44.918;8.614;2023-04-06T10:49:16;19.48;27.46
77056;SHT30;67471;44.918;8.614;2023-04-06T10:52:20;18.75;27.58
77056;SHT30;67471;44.918;8.614;2023-04-06T10:55:25;18.99;27.70
77056;SHT30;67471;44.918;8.614;2023-04-06T10:58:30;19.12;27.52
77056;SHT30;67471;44.918;8.614;2023-04-06T11:01:34;19.08;26.56
77056;SHT30;67471;44.918;8.614;2023-04-06T11:04:38;19.02;26.74
77056;SHT30;67471;44.918;8.614;2023-04-06T11:07:44;17.48;27.36
77056;SHT30;67471;44.918;8.614;2023-04-06T11:10:48;17.89;26.93
77056;SHT30;67471;44.918;8.614;2023-04-06T11:13:54;18.36;26.77
77056;SHT30;67471;44.918;8.614;2023-04-06T11:16:58;17.13;27.36
77056;SHT30;67471;44.918;8.614;2023-04-06T11:20:04;16.93;27.70
77056;SHT30;67471;44.918;8.614;2023-04-06T11:23:08;17.21;27.58
77056;SHT30;67471;44.918;8.614;2023-04-06T11:26:13;18.13;26.72
77056;SHT30;67471;44.918;8.614;2023-04-06T11:29:27;18.83;25.66
77056;SHT30;67471;44.918;8.614;2023-04-06T11:32:39;19.05;25.12
77056;SHT30;67471;44.918;8.614;2023-04-06T11:35:44;19.19;25.32
77056;SHT30;67471;44.918;8.614;2023-04-06T11:38:49;19.14;24.87
77056;SHT30;67471;44.918;8.614;2023-04-06T11:41:57;18.84;25.24
77056;SHT30;67471;44.918;8.614;2023-04-06T11:45:01;18.74;25.54
77056;SHT30;67471;44.918;8.614;2023-04-06T11:48:04;18.60;25.69
77056;SHT30;67471;44.918;8.614;2023-04-06T11:51:08;18.72;26.08
77056;SHT30;67471;44.918;8.614;2023-04-06T11:54:12;18.61;26.32
77056;SHT30;67471;44.918;8.614;2023-04-06T11:57:17;17.26;27.69
77056;SHT30;67471;44.918;8.614;2023-04-06T12:00:21;17.69;27.18
77056;SHT30;67471;44.918;8.614;2023-04-06T12:03:25;18.10;27.25
77056;SHT30;67471;44.918;8.614;2023-04-06T12:06:29;18.44;26.78
77056;SHT30;67471;44.918;8.614;2023-04-06T12:09:33;18.70;26.75
77056;SHT30;67471;44.918;8.614;2023-04-06T12:12:38;18.88;26.67
77056;SHT30;67471;44.918;8.614;2023-04-06T12:15:41;18.85;26.64
77056;SHT30;67471;44.918;8.614;2023-04-06T12:18:45;18.74;26.55
77056;SHT30;67471;44.918;8.614;2023-04-06T12:21:49;18.65;27.05
77056;SHT30;67471;44.918;8.614;2023-04-06T12:24:53;18.81;27.25
77056;SHT30;67471;44.918;8.614;2023-04-06T12:27:56;18.81;27.15
77056;SHT30;67471;44.918;8.614;2023-04-06T12:31:01;18.68;26.93
77056;SHT30;67471;44.918;8.614;2023-04-06T12:34:04;18.89;26.61
77056;SHT30;67471;44.918;8.614;2023-04-06T12:37:08;18.72;26.76
77056;SHT30;67471;44.918;8.614;2023-04-06T12:40:12;18.77;26.84
77056;SHT30;67471;44.918;8.614;2023-04-06T12:43:18;18.57;26.76
77056;SHT30;67471;44.918;8.614;2023-04-06T12:46:23;18.43;27.33
77056;SHT30;67471;44.918;8.614;2023-04-06T12:49:26;18.75;27.34
77056;SHT30;67471;44.918;8.614;2023-04-06T12:52:30;18.95;26.79
77056;SHT30;67471;44.918;8.614;2023-04-06T12:55:35;19.14;26.82
77056;SHT30;67471;44.918;8.614;2023-04-06T12:58:40;18.77;26.88
77056;SHT30;67471;44.918;8.614;2023-04-06T13:01:44;19.04;27.34
77056;SHT30;67471;44.918;8.614;2023-04-06T13:04:49;18.84;27.47
77056;SHT30;67471;44.918;8.614;2023-04-06T13:07:53;19.18;27.28
77056;SHT30;67471;44.918;8.614;2023-04-06T13:10:57;19.35;27.31
77056;SHT30;67471;44.918;8.614;2023-04-06T13:14:01;19.58;26.91
77056;SHT30;67471;44.918;8.614;2023-04-06T13:17:05;19.53;26.46
77056;SHT30;67471;44.918;8.614;2023-04-06T13:20:09;19.66;26.85
77056;SHT30;67471;44.918;8.614;2023-04-06T13:23:13;19.65;27.14
77056;SHT30;67471;44.918;8.614;2023-04-06T13:26:17;19.70;26.70
77056;SHT30;67471;44.918;8.614;2023-04-06T13:29:21;19.66;26.67
77056;SHT30;67471;44.918;8.614;2023-04-06T13:32:24;19.62;26.96
77056;SHT30;67471;44.918;8.614;2023-04-06T13:35:28;19.56;26.76
77056;SHT30;67471;44.918;8.614;2023-04-06T13:38:32;19.39;26.68
77056;SHT30;67471;44.918;8.614;2023-04-06T13:41:36;19.35;26.62
77056;SHT30;67471;44.918;8.614;2023-04-06T13:44:40;19.25;27.19
77056;SHT30;67471;44.918;8.614;2023-04-06T13:47:44;19.38;27.14
77056;SHT30;67471;44.918;8.614;2023-04-06T13:50:49;19.32;26.79
77056;SHT30;67471;44.918;8.614;2023-04-06T13:53:52;19.29;26.78
77056;SHT30;67471;44.918;8.614;2023-04-06T13:56:56;19.15;26.86
77056;SHT30;67471;44.918;8.614;2023-04-06T14:00:00;18.97;27.36
77056;SHT30;67471;44.918;8.614;2023-04-06T14:03:05;19.01;27.49
77056;SHT30;67471;44.918;8.614;2023-04-06T14:06:10;18.63;28.00
77056;SHT30;67471;44.918;8.614;2023-04-06T14:09:14;18.87;27.90
77056;SHT30;67471;44.918;8.614;2023-04-06T14:12:18;18.98;27.61
77056;SHT30;67471;44.918;8.614;2023-04-06T14:15:22;18.99;27.60
77056;SHT30;67471;44.918;8.614;2023-04-06T14:18:27;18.81;27.57
77056;SHT30;67471;44.918;8.614;2023-04-06T14:21:34;18.77;27.63
77056;SHT30;67471;44.918;8.614;2023-04-06T14:24:38;18.87;27.61
77056;SHT30;67471;44.918;8.614;2023-04-06T14:27:43;18.91;27.50
77056;SHT30;67471;44.918;8.614;2023-04-06T14:30:47;18.92;27.98
77056;SHT30;67471;44.918;8.614;2023-04-06T14:33:51;19.04;27.87
77056;SHT30;67471;44.918;8.614;2023-04-06T14:36:55;18.70;28.39
77056;SHT30;67471;44.918;8.614;2023-04-06T14:39:58;18.87;27.58
77056;SHT30;67471;44.918;8.614;2023-04-06T14:43:03;18.84;26.94
77056;SHT30;67471;44.918;8.614;2023-04-06T14:46:07;18.75;27.13
77056;SHT30;67471;44.918;8.614;2023-04-06T14:49:12;18.80;27.30
77056;SHT30;67471;44.918;8.614;2023-04-06T14:52:15;18.74;27.88
77056;SHT30;67471;44.918;8.614;2023-04-06T14:55:19;18.80;27.54
77056;SHT30;67471;44.918;8.614;2023-04-06T14:58:24;18.78;27.80
77056;SHT30;67471;44.918;8.614;2023-04-06T15:01:28;18.61;28.26
77056;SHT30;67471;44.918;8.614;2023-04-06T15:04:36;18.56;27.70
77056;SHT30;67471;44.918;8.614;2023-04-06T15:07:40;18.43;28.41
77056;SHT30;67471;44.918;8.614;2023-04-06T15:10:44;18.47;28.13
77056;SHT30;67471;44.918;8.614;2023-04-06T15:13:48;18.33;27.96
77056;SHT30;67471;44.918;8.614;2023-04-06T15:16:51;18.26;28.74
77056;SHT30;67471;44.918;8.614;2023-04-06T15:19:55;18.25;28.65
77056;SHT30;67471;44.918;8.614;2023-04-06T15:23:01;18.30;28.62
77056;SHT30;67471;44.918;8.614;2023-04-06T15:26:05;18.43;28.47
77056;SHT30;67471;44.918;8.614;2023-04-06T15:29:08;18.50;28.77
77056;SHT30;67471;44.918;8.614;2023-04-06T15:32:14;18.58;28.80
77056;SHT30;67471;44.918;8.614;2023-04-06T15:35:18;18.67;28.75
77056;SHT30;67471;44.918;8.614;2023-04-06T15:38:24;18.75;28.76
77056;SHT30;67471;44.918;8.614;2023-04-06T15:41:29;18.71;28.27
77056;SHT30;67471;44.918;8.614;2023-04-06T15:44:33;18.67;27.98
77056;SHT30;67471;44.918;8.614;2023-04-06T15:47:40;18.60;28.48
77056;SHT30;67471;44.918;8.614;2023-04-06T15:50:44;18.49;28.59
77056;SHT30;67471;44.918;8.614;2023-04-06T15:53:48;18.41;28.48
77056;SHT30;67471;44.918;8.614;2023-04-06T15:56:52;18.37;28.64
77056;SHT30;67471;44.918;8.614;2023-04-06T15:59:58;18.29;28.88
77056;SHT30;67471;44.918;8.614;2023-04-06T16:03:03;17.83;29.70
77056;SHT30;67471;44.918;8.614;2023-04-06T16:06:07;16.96;31.23
77056;SHT30;67471;44.918;8.614;2023-04-06T16:09:10;16.69;31.65
77056;SHT30;67471;44.918;8.614;2023-04-06T16:12:14;16.97;31.67
77056;SHT30;67471;44.918;8.614;2023-04-06T16:15:18;17.45;30.87
77056;SHT30;67471;44.918;8.614;2023-04-06T16:18:22;17.47;30.74
77056;SHT30;67471;44.918;8.614;2023-04-06T16:21:26;17.52;30.64
77056;SHT30;67471;44.918;8.614;2023-04-06T16:24:30;17.31;31.10
77056;SHT30;67471;44.918;8.614;2023-04-06T16:27:34;17.44;30.89
77056;SHT30;67471;44.918;8.614;2023-04-06T16:30:38;17.72;30.69
77056;SHT30;67471;44.918;8.614;2023-04-06T16:33:46;17.81;30.59
77056;SHT30;67471;44.918;8.614;2023-04-06T16:36:50;18.00;30.30
77056;SHT30;67471;44.918;8.614;2023-04-06T16:39:54;18.14;30.07
77056;SHT30;67471;44.918;8.614;2023-04-06T16:42:58;17.96;30.33
77056;SHT30;67471;44.918;8.614;2023-04-06T16:46:04;18.05;30.68
77056;SHT30;67471;44.918;8.614;2023-04-06T16:49:11;18.22;30.38
77056;SHT30;67471;44.918;8.614;2023-04-06T16:52:15;18.06;30.08
77056;SHT30;67471;44.918;8.614;2023-04-06T16:55:19;18.14;30.10
77056;SHT30;67471;44.918;8.614;2023-04-06T16:58:23;18.06;30.14
77056;SHT30;67471;44.918;8.614;2023-04-06T17:01:27;18.22;30.03
77056;SHT30;67471;44.918;8.614;2023-04-06T17:04:32;18.23;30.29
77056;SHT30;67471;44.918;8.614;2023-04-06T17:07:35;18.19;30.46
77056;SHT30;67471;44.918;8.614;2023-04-06T17:10:39;18.02;30.75
77056;SHT30;67471;44.918;8.614;2023-04-06T17:13:47;17.95;31.06
77056;SHT30;67471;44.918;8.614;2023-04-06T17:16:54;17.54;31.31
77056;SHT30;67471;44.918;8.614;2023-04-06T17:19:58;17.77;31.11
77056;SHT30;67471;44.918;8.614;2023-04-06T17:23:02;17.32;31.84
77056;SHT30;67471;44.918;8.614;2023-04-06T17:26:06;17.37;31.71
77056;SHT30;67471;44.918;8.614;2023-04-06T17:29:10;17.09;32.00
77056;SHT30;67471;44.918;8.614;2023-04-06T17:32:18;17.23;31.83
77056;SHT30;67471;44.918;8.614;2023-04-06T17:35:24;17.17;31.91
77056;SHT30;67471;44.918;8.614;2023-04-06T17:38:29;17.17;32.08
77056;SHT30;67471;44.918;8.614;2023-04-06T17:41:33;17.13;32.26
77056;SHT30;67471;44.918;8.614;2023-04-06T17:44:37;17.14;32.31
77056;SHT30;67471;44.918;8.614;2023-04-06T17:47:40;16.94;32.67
77056;SHT30;67471;44.918;8.614;2023-04-06T17:50:44;16.89;32.67
77056;SHT30;67471;44.918;8.614;2023-04-06T17:53:48;16.80;32.83
77056;SHT30;67471;44.918;8.614;2023-04-06T17:56:55;16.66;33.02
77056;SHT30;67471;44.918;8.614;2023-04-06T17:59:59;16.33;33.61
77056;SHT30;67471;44.918;8.614;2023-04-06T18:03:03;15.51;34.59
77056;SHT30;67471;44.918;8.614;2023-04-06T18:06:13;15.18;35.30
77056;SHT30;67471;44.918;8.614;2023-04-06T18:09:22;15.30;35.19
77056;SHT30;67471;44.918;8.614;2023-04-06T18:12:26;15.18;35.61
77056;SHT30;67471;44.918;8.614;2023-04-06T18:15:30;15.01;35.93
77056;SHT30;67471;44.918;8.614;2023-04-06T18:18:34;15.05;35.90
77056;SHT30;67471;44.918;8.614;2023-04-06T18:21:38;14.88;36.84
77056;SHT30;67471;44.918;8.614;2023-04-06T18:24:42;14.71;38.01
77056;SHT30;67471;44.918;8.614;2023-04-06T18:27:46;14.72;39.58
77056;SHT30;67471;44.918;8.614;2023-04-06T18:30:49;14.58;40.62
77056;SHT30;67471;44.918;8.614;2023-04-06T18:33:53;14.75;41.61
77056;SHT30;67471;44.918;8.614;2023-04-06T18:36:57;14.65;42.03
77056;SHT30;67471;44.918;8.614;2023-04-06T18:40:02;14.57;42.55
77056;SHT30;67471;44.918;8.614;2023-04-06T18:43:07;14.42;44.15
77056;SHT30;67471;44.918;8.614;2023-04-06T18:46:15;14.68;43.59
77056;SHT30;67471;44.918;8.614;2023-04-06T18:49:20;14.52;45.50
77056;SHT30;67471;44.918;8.614;2023-04-06T18:52:23;14.09;47.58
77056;SHT30;67471;44.918;8.614;2023-04-06T18:55:32;13.93;48.01
77056;SHT30;67471;44.918;8.614;2023-04-06T18:58:36;14.08;47.58
77056;SHT30;67471;44.918;8.614;2023-04-06T19:01:40;14.23;47.07
77056;SHT30;67471;44.918;8.614;2023-04-06T19:04:47;14.10;47.21
77056;SHT30;67471;44.918;8.614;2023-04-06T19:07:53;14.34;47.01
77056;SHT30;67471;44.918;8.614;2023-04-06T19:10:57;14.38;46.41
77056;SHT30;67471;44.918;8.614;2023-04-06T19:14:01;14.40;46.48
77056;SHT30;67471;44.918;8.614;2023-04-06T19:17:05;14.34;46.68
77056;SHT30;67471;44.918;8.614;2023-04-06T19:20:09;14.47;46.29
77056;SHT30;67471;44.918;8.614;2023-04-06T19:23:13;14.34;46.10
77056;SHT30;67471;44.918;8.614;2023-04-06T19:26:18;14.19;46.70
77056;SHT30;67471;44.918;8.614;2023-04-06T19:29:22;14.20;47.14
77056;SHT30;67471;44.918;8.614;2023-04-06T19:32:27;14.05;48.03
77056;SHT30;67471;44.918;8.614;2023-04-06T19:35:32;13.61;49.71
77056;SHT30;67471;44.918;8.614;2023-04-06T19:38:36;13.55;50.41
77056;SHT30;67471;44.918;8.614;2023-04-06T19:41:40;13.58;50.86
77056;SHT30;67471;44.918;8.614;2023-04-06T19:44:44;13.41;51.27
77056;SHT30;67471;44.918;8.614;2023-04-06T19:47:48;13.48;51.51